sensor_id;sensor_type;location;lat;lon;timestamp;temperature;humidity
11188;DHT22;5650;52.700;7.306;2023-01-23T00:01:35;3.10;99.90
11188;DHT22;5650;52.700;7.306;2023-01-23T00:04:04;3.10;99.90
11188;DHT22;5650;52.700;7.306;2023-01-23T00:06:31;3.10;99.90
11188;DHT22;5650;52.700;7.306;2023-01-23T00:08:58;3.00;99.90
11188;DHT22;5650;52.700;7.306;2023-01-23T00:11:29;3.00;99.90
11188;DHT22;5650;52.700;7.306;2023-01-23T00:13:59;3.00;99.90
11188;DHT22;5650;52.700;7.306;2023-01-23T00:16:28;3.00;99.90
11188;DHT22;5650;52.700;7.306;2023-01-23T00:18:59;3.10;99.90
11188;DHT22;5650;52.700;7.306;2023-01-23T00:21:29;3.00;99.90
11188;DHT22;5650;52.700;7.306;2023-01-23T00:23:58;3.00;99.90
11188;DHT22;5650;52.700;7.306;2023-01-23T00:26:27;3.00;99.90
11188;DHT22;5650;52.700;7.306;2023-01-23T00:28:55;3.00;99.90
11188;DHT22;5650;52.700;7.306;2023-01-23T00:31:28;3.00;99.90
11188;DHT22;5650;52.700;7.306;2023-01-23T00:33:57;3.00;99.90
11188;DHT22;5650;52.700;7.306;2023-01-23T00:36:27;3.00;99.90
11188;DHT22;5650;52.700;7.306;2023-01-23T00:39:01;3.00;99.90
11188;DHT22;5650;52.700;7.306;2023-01-23T00:41:29;2.90;99.90
11188;DHT22;5650;52.700;7.306;2023-01-23T00:43:56;2.90;99.90
11188;DHT22;5650;52.700;7.306;2023-01-23T00:46:23;2.90;99.90
11188;DHT22;5650;52.700;7.306;2023-01-23T00:48:53;2.90;99.90
11188;DHT22;5650;52.700;7.306;2023-01-23T00:51:23;2.90;99.90
11188;DHT22;5650;52.700;7.306;2023-01-23T00:53:54;2.90;99.90
11188;DHT22;5650;52.700;7.306;2023-01-23T00:56:27;2.90;99.90
11188;DHT22;5650;52.700;7.306;2023-01-23T00:58:54;2.90;99.90
11188;DHT22;5650;52.700;7.306;2023-01-23T01:01:24;3.00;99.90
11188;DHT22;5650;52.700;7.306;2023-01-23T01:03:58;2.90;99.90
11188;DHT22;5650;52.700;7.306;2023-01-23T01:06:26;3.00;99.90
11188;DHT22;5650;52.700;7.306;2023-01-23T01:08:57;2.90;99.90
11188;DHT22;5650;52.700;7.306;2023-01-23T01:11:36;2.90;99.90
11188;DHT22;5650;52.700;7.306;2023-01-23T01:14:03;2.90;99.90
11188;DHT22;5650;52.700;7.306;2023-01-23T01:16:36;2.90;99.90
11188;DHT22;5650;52.700;7.306;2023-01-23T01:19:07;2.90;99.90
11188;DHT22;5650;52.700;7.306;2023-01-23T01:21:34;2.90;99.90
11188;DHT22;5650;52.700;7.306;2023-01-23T01:24:08;2.90;99.90
11188;DHT22;5650;52.700;7.306;2023-01-23T01:26:35;2.90;99.90
11188;DHT22;5650;52.700;7.306;2023-01-23T01:29:03;2.90;99.90
11188;DHT22;5650;52.700;7.306;2023-01-23T01:31:30;2.90;99.90
11188;DHT22;5650;52.700;7.306;2023-01-23T01:34:03;2.90;99.90
11188;DHT22;5650;52.700;7.306;2023-01-23T01:36:34;3.00;99.90
11188;DHT22;5650;52.700;7.306;2023-01-23T01:39:02;3.00;99.90
11188;DHT22;5650;52.700;7.306;2023-01-23T01:41:29;3.00;99.90
11188;DHT22;5650;52.700;7.306;2023-01-23T01:43:56;3.00;99.90
11188;DHT22;5650;52.700;7.306;2023-01-23T01:46:25;3.00;99.90
11188;DHT22;5650;52.700;7.306;2023-01-23T01:49:04;3.00;99.90
11188;DHT22;5650;52.700;7.306;2023-01-23T01:51:43;3.00;99.90
11188;DHT22;5650;52.700;7.306;2023-01-23T01:54:18;3.00;99.90
11188;DHT22;5650;52.700;7.306;2023-01-23T01:56:50;3.00;99.90
11188;DHT22;5650;52.700;7.306;2023-01-23T01:59:19;3.00;99.90
11188;DHT22;5650;52.700;7.306;2023-01-23T02:01:50;3.00;99.90
11188;DHT22;5650;52.700;7.306;2023-01-23T02:04:25;3.00;99.90
11188;DHT22;5650;52.700;7.306;2023-01-23T02:06:58;3.00;99.90
11188;DHT22;5650;52.700;7.306;2023-01-23T02:09:25;3.00;99.90
11188;DHT22;5650;52.700;7.306;2023-01-23T02:11:52;3.00;99.90
11188;DHT22;5650;52.700;7.306;2023-01-23T02:14:20;3.00;99.90
11188;DHT22;5650;52.700;7.306;2023-01-23T02:16:52;3.00;99.90
11188;DHT22;5650;52.700;7.306;2023-01-23T02:22:29;3.00;99.90
11188;DHT22;5650;52.700;7.306;2023-01-23T02:25:02;3.00;99.90
11188;DHT22;5650;52.700;7.306;2023-01-23T02:27:33;3.00;99.90
11188;DHT22;5650;52.700;7.306;2023-01-23T02:30:00;3.00;99.90
11188;DHT22;5650;52.700;7.306;2023-01-23T02:32:27;3.00;99.90
11188;DHT22;5650;52.700;7.306;2023-01-23T02:34:56;3.00;99.90
11188;DHT22;5650;52.700;7.306;2023-01-23T02:37:25;3.00;99.90
11188;DHT22;5650;52.700;7.306;2023-01-23T02:39:56;3.00;99.90
11188;DHT22;5650;52.700;7.306;2023-01-23T02:42:26;3.00;99.90
11188;DHT22;5650;52.700;7.306;2023-01-23T02:44:55;3.00;99.90
11188;DHT22;5650;52.700;7.306;2023-01-23T02:47:24;3.10;99.90
11188;DHT22;5650;52.700;7.306;2023-01-23T02:49:58;3.00;99.90
11188;DHT22;5650;52.700;7.306;2023-01-23T02:52:25;3.10;99.90
11188;DHT22;5650;52.700;7.306;2023-01-23T02:54:55;3.10;99.90
11188;DHT22;5650;52.700;7.306;2023-01-23T02:57:26;3.10;99.90
11188;DHT22;5650;52.700;7.306;2023-01-23T02:59:57;3.10;99.90
11188;DHT22;5650;52.700;7.306;2023-01-23T03:02:48;3.10;99.90
11188;DHT22;5650;52.700;7.306;2023-01-23T03:05:17;3.10;99.90
11188;DHT22;5650;52.700;7.306;2023-01-23T03:07:47;3.00;99.90
11188;DHT22;5650;52.700;7.306;2023-01-23T03:10:15;3.00;99.90
11188;DHT22;5650;52.700;7.306;2023-01-23T03:12:45;3.00;99.90
11188;DHT22;5650;52.700;7.306;2023-01-23T03:15:17;3.00;99.90
11188;DHT22;5650;52.700;7.306;2023-01-23T03:17:45;3.00;99.90
11188;DHT22;5650;52.700;7.306;2023-01-23T03:20:13;3.10;99.90
11188;DHT22;5650;52.700;7.306;2023-01-23T03:22:42;3.10;99.90
11188;DHT22;5650;52.700;7.306;2023-01-23T03:25:20;3.10;99.90
11188;DHT22;5650;52.700;7.306;2023-01-23T03:27:56;3.00;99.90
11188;DHT22;5650;52.700;7.306;2023-01-23T03:30:25;3.00;99.90
11188;DHT22;5650;52.700;7.306;2023-01-23T03:32:57;3.00;99.90
11188;DHT22;5650;52.700;7.306;2023-01-23T03:35:33;3.00;99.90
11188;DHT22;5650;52.700;7.306;2023-01-23T03:38:00;3.00;99.90
11188;DHT22;5650;52.700;7.306;2023-01-23T03:40:27;3.10;99.90
11188;DHT22;5650;52.700;7.306;2023-01-23T03:43:18;3.10;99.90
11188;DHT22;5650;52.700;7.306;2023-01-23T03:45:53;3.10;99.90
11188;DHT22;5650;52.700;7.306;2023-01-23T03:48:23;3.10;99.90
11188;DHT22;5650;52.700;7.306;2023-01-23T03:50:50;3.10;99.90
11188;DHT22;5650;52.700;7.306;2023-01-23T03:53:17;3.20;99.90
11188;DHT22;5650;52.700;7.306;2023-01-23T03:55:45;3.20;99.90
11188;DHT22;5650;52.700;7.306;2023-01-23T03:58:16;3.20;99.90
11188;DHT22;5650;52.700;7.306;2023-01-23T04:00:53;3.20;99.90
11188;DHT22;5650;52.700;7.306;2023-01-23T04:03:29;3.20;99.90
11188;DHT22;5650;52.700;7.306;2023-01-23T04:06:03;3.10;99.90
11188;DHT22;5650;52.700;7.306;2023-01-23T04:08:39;3.10;99.90
11188;DHT22;5650;52.700;7.306;2023-01-23T04:11:07;3.10;99.90
11188;DHT22;5650;52.700;7.306;2023-01-23T04:13:50;3.10;99.90
11188;DHT22;5650;52.700;7.306;2023-01-23T04:16:22;3.10;99.90
11188;DHT22;5650;52.700;7.306;2023-01-23T04:18:55;3.10;99.90
11188;DHT22;5650;52.700;7.306;2023-01-23T04:21:24;3.10;99.90
11188;DHT22;5650;52.700;7.306;2023-01-23T04:23:51;3.10;99.90
11188;DHT22;5650;52.700;7.306;2023-01-23T04:26:19;3.10;99.90
11188;DHT22;5650;52.700;7.306;2023-01-23T04:28:46;3.10;99.90
11188;DHT22;5650;52.700;7.306;2023-01-23T04:31:13;3.10;99.90
11188;DHT22;5650;52.700;7.306;2023-01-23T04:33:42;3.10;99.90
11188;DHT22;5650;52.700;7.306;2023-01-23T04:36:12;3.10;99.90
11188;DHT22;5650;52.700;7.306;2023-01-23T04:38:44;3.10;99.90
11188;DHT22;5650;52.700;7.306;2023-01-23T04:41:15;3.00;99.90
11188;DHT22;5650;52.700;7.306;2023-01-23T04:43:44;3.10;99.90
11188;DHT22;5650;52.700;7.306;2023-01-23T04:46:11;3.00;99.90
11188;DHT22;5650;52.700;7.306;2023-01-23T04:48:38;3.00;99.90
11188;DHT22;5650;52.700;7.306;2023-01-23T04:51:07;3.00;99.90
11188;DHT22;5650;52.700;7.306;2023-01-23T04:53:34;3.00;99.90
11188;DHT22;5650;52.700;7.306;2023-01-23T04:56:02;3.00;99.90
11188;DHT22;5650;52.700;7.306;2023-01-23T04:58:38;3.00;99.90
11188;DHT22;5650;52.700;7.306;2023-01-23T05:01:06;3.00;99.90
11188;DHT22;5650;52.700;7.306;2023-01-23T05:03:36;3.00;99.90
11188;DHT22;5650;52.700;7.306;2023-01-23T05:06:04;3.00;99.90
11188;DHT22;5650;52.700;7.306;2023-01-23T05:08:32;3.00;99.90
11188;DHT22;5650;52.700;7.306;2023-01-23T05:11:09;3.00;99.90
11188;DHT22;5650;52.700;7.306;2023-01-23T05:13:39;3.00;99.90
11188;DHT22;5650;52.700;7.306;2023-01-23T05:16:07;3.00;99.90
11188;DHT22;5650;52.700;7.306;2023-01-23T05:18:45;3.00;99.90
11188;DHT22;5650;52.700;7.306;2023-01-23T05:21:12;3.00;99.90
11188;DHT22;5650;52.700;7.306;2023-01-23T05:23:51;3.00;99.90
11188;DHT22;5650;52.700;7.306;2023-01-23T05:26:21;3.00;99.90
11188;DHT22;5650;52.700;7.306;2023-01-23T05:28:48;3.00;99.90
11188;DHT22;5650;52.700;7.306;2023-01-23T05:31:24;3.00;99.90
11188;DHT22;5650;52.700;7.306;2023-01-23T05:33:51;3.00;99.90
11188;DHT22;5650;52.700;7.306;2023-01-23T05:36:18;3.00;99.90
11188;DHT22;5650;52.700;7.306;2023-01-23T05:38:47;3.00;99.90
11188;DHT22;5650;52.700;7.306;2023-01-23T05:41:14;3.00;99.90
11188;DHT22;5650;52.700;7.306;2023-01-23T05:43:42;3.00;99.90
11188;DHT22;5650;52.700;7.306;2023-01-23T05:46:09;3.00;99.90
11188;DHT22;5650;52.700;7.306;2023-01-23T05:48:39;3.00;99.90
11188;DHT22;5650;52.700;7.306;2023-01-23T05:51:09;3.00;99.90
11188;DHT22;5650;52.700;7.306;2023-01-23T05:53:36;3.10;99.90
11188;DHT22;5650;52.700;7.306;2023-01-23T05:56:08;3.10;99.90
11188;DHT22;5650;52.700;7.306;2023-01-23T05:58:35;3.00;99.90
11188;DHT22;5650;52.700;7.306;2023-01-23T06:01:03;3.00;99.90
11188;DHT22;5650;52.700;7.306;2023-01-23T06:03:39;3.10;99.90
11188;DHT22;5650;52.700;7.306;2023-01-23T06:06:07;3.10;99.90
11188;DHT22;5650;52.700;7.306;2023-01-23T06:08:41;3.10;99.90
11188;DHT22;5650;52.700;7.306;2023-01-23T06:11:16;3.10;99.90
11188;DHT22;5650;52.700;7.306;2023-01-23T06:13:46;3.00;99.90
11188;DHT22;5650;52.700;7.306;2023-01-23T06:16:16;3.10;99.90
11188;DHT22;5650;52.700;7.306;2023-01-23T06:18:51;3.00;99.90
11188;DHT22;5650;52.700;7.306;2023-01-23T06:21:18;3.00;99.90
11188;DHT22;5650;52.700;7.306;2023-01-23T06:23:45;3.00;99.90
11188;DHT22;5650;52.700;7.306;2023-01-23T06:26:13;3.00;99.90
11188;DHT22;5650;52.700;7.306;2023-01-23T06:28:41;2.90;99.90
11188;DHT22;5650;52.700;7.306;2023-01-23T06:31:08;2.90;99.90
11188;DHT22;5650;52.700;7.306;2023-01-23T06:33:41;3.00;99.90
11188;DHT22;5650;52.700;7.306;2023-01-23T06:36:15;2.90;99.90
11188;DHT22;5650;52.700;7.306;2023-01-23T06:38:42;2.90;99.90
11188;DHT22;5650;52.700;7.306;2023-01-23T06:41:10;2.90;99.90
11188;DHT22;5650;52.700;7.306;2023-01-23T06:43:37;2.90;99.90
11188;DHT22;5650;52.700;7.306;2023-01-23T06:46:17;2.90;99.90
11188;DHT22;5650;52.700;7.306;2023-01-23T06:48:44;2.90;99.90
11188;DHT22;5650;52.700;7.306;2023-01-23T06:51:11;3.00;99.90
11188;DHT22;5650;52.700;7.306;2023-01-23T06:53:46;3.00;99.90
11188;DHT22;5650;52.700;7.306;2023-01-23T06:56:16;3.00;99.90
11188;DHT22;5650;52.700;7.306;2023-01-23T06:58:52;3.00;99.90
11188;DHT22;5650;52.700;7.306;2023-01-23T07:01:28;3.00;99.90
11188;DHT22;5650;52.700;7.306;2023-01-23T07:03:55;3.00;99.90
11188;DHT22;5650;52.700;7.306;2023-01-23T07:06:25;3.00;99.90
11188;DHT22;5650;52.700;7.306;2023-01-23T07:08:55;3.00;99.90
11188;DHT22;5650;52.700;7.306;2023-01-23T07:11:22;3.00;99.90
11188;DHT22;5650;52.700;7.306;2023-01-23T07:13:56;3.00;99.90
11188;DHT22;5650;52.700;7.306;2023-01-23T07:16:25;3.00;99.90
11188;DHT22;5650;52.700;7.306;2023-01-23T07:18:52;3.00;99.90
11188;DHT22;5650;52.700;7.306;2023-01-23T07:21:22;3.00;99.90
11188;DHT22;5650;52.700;7.306;2023-01-23T07:23:57;3.00;99.90
11188;DHT22;5650;52.700;7.306;2023-01-23T07:26:30;3.00;99.90
11188;DHT22;5650;52.700;7.306;2023-01-23T07:28:59;3.00;99.90
11188;DHT22;5650;52.700;7.306;2023-01-23T07:31:28;3.10;99.90
11188;DHT22;5650;52.700;7.306;2023-01-23T07:33:55;3.10;99.90
11188;DHT22;5650;52.700;7.306;2023-01-23T07:36:22;3.10;99.90
11188;DHT22;5650;52.700;7.306;2023-01-23T07:38:51;3.10;99.90
11188;DHT22;5650;52.700;7.306;2023-01-23T07:41:31;3.10;99.90
11188;DHT22;5650;52.700;7.306;2023-01-23T07:44:13;3.10;99.90
11188;DHT22;5650;52.700;7.306;2023-01-23T07:46:47;3.10;99.90
11188;DHT22;5650;52.700;7.306;2023-01-23T07:49:17;3.10;99.90
11188;DHT22;5650;52.700;7.306;2023-01-23T07:51:44;3.10;99.90
11188;DHT22;5650;52.700;7.306;2023-01-23T07:54:11;3.10;99.90
11188;DHT22;5650;52.700;7.306;2023-01-23T07:56:38;3.10;99.90
11188;DHT22;5650;52.700;7.306;2023-01-23T07:59:06;3.10;99.90
11188;DHT22;5650;52.700;7.306;2023-01-23T08:01:35;3.10;99.90
11188;DHT22;5650;52.700;7.306;2023-01-23T08:04:04;3.20;99.90
11188;DHT22;5650;52.700;7.306;2023-01-23T08:06:31;3.20;99.90
11188;DHT22;5650;52.700;7.306;2023-01-23T08:08:59;3.20;99.90
11188;DHT22;5650;52.700;7.306;2023-01-23T08:11:29;3.20;99.90
11188;DHT22;5650;52.700;7.306;2023-01-23T08:13:59;3.20;99.90
11188;DHT22;5650;52.700;7.306;2023-01-23T08:16:26;3.20;99.90
11188;DHT22;5650;52.700;7.306;2023-01-23T08:18:54;3.20;99.90
11188;DHT22;5650;52.700;7.306;2023-01-23T08:21:25;3.20;99.90
11188;DHT22;5650;52.700;7.306;2023-01-23T08:24:00;3.20;99.90
11188;DHT22;5650;52.700;7.306;2023-01-23T08:26:27;3.20;99.90
11188;DHT22;5650;52.700;7.306;2023-01-23T08:28:57;3.20;99.90
11188;DHT22;5650;52.700;7.306;2023-01-23T08:31:24;3.20;99.90
11188;DHT22;5650;52.700;7.306;2023-01-23T08:33:51;3.30;99.90
11188;DHT22;5650;52.700;7.306;2023-01-23T08:36:21;3.30;99.90
11188;DHT22;5650;52.700;7.306;2023-01-23T08:38:50;3.30;99.90
11188;DHT22;5650;52.700;7.306;2023-01-23T08:41:23;3.30;99.90
11188;DHT22;5650;52.700;7.306;2023-01-23T08:43:51;3.30;99.90
11188;DHT22;5650;52.700;7.306;2023-01-23T08:46:18;3.30;99.90
11188;DHT22;5650;52.700;7.306;2023-01-23T08:48:45;3.30;99.90
11188;DHT22;5650;52.700;7.306;2023-01-23T08:51:13;3.30;99.90
11188;DHT22;5650;52.700;7.306;2023-01-23T08:53:41;3.30;99.90
11188;DHT22;5650;52.700;7.306;2023-01-23T08:56:13;3.30;99.90
11188;DHT22;5650;52.700;7.306;2023-01-23T08:58:41;3.40;99.90
11188;DHT22;5650;52.700;7.306;2023-01-23T09:01:10;3.40;99.90
11188;DHT22;5650;52.700;7.306;2023-01-23T09:03:41;3.40;99.90
11188;DHT22;5650;52.700;7.306;2023-01-23T09:06:08;3.40;99.90
11188;DHT22;5650;52.700;7.306;2023-01-23T09:08:35;3.40;99.90
11188;DHT22;5650;52.700;7.306;2023-01-23T09:11:14;3.40;99.90
11188;DHT22;5650;52.700;7.306;2023-01-23T09:13:44;3.40;99.90
11188;DHT22;5650;52.700;7.306;2023-01-23T09:16:11;3.50;99.90
11188;DHT22;5650;52.700;7.306;2023-01-23T09:18:44;3.50;99.90
11188;DHT22;5650;52.700;7.306;2023-01-23T09:21:13;3.50;99.90
11188;DHT22;5650;52.700;7.306;2023-01-23T09:23:44;3.50;99.90
11188;DHT22;5650;52.700;7.306;2023-01-23T09:26:13;3.50;99.90
11188;DHT22;5650;52.700;7.306;2023-01-23T09:28:42;3.50;99.90
11188;DHT22;5650;52.700;7.306;2023-01-23T09:31:15;3.50;99.90
11188;DHT22;5650;52.700;7.306;2023-01-23T09:33:43;3.50;99.90
11188;DHT22;5650;52.700;7.306;2023-01-23T09:36:12;3.50;99.90
11188;DHT22;5650;52.700;7.306;2023-01-23T09:38:39;3.50;99.90
11188;DHT22;5650;52.700;7.306;2023-01-23T09:41:09;3.50;99.90
11188;DHT22;5650;52.700;7.306;2023-01-23T09:43:42;3.50;99.90
11188;DHT22;5650;52.700;7.306;2023-01-23T09:46:17;3.60;99.90
11188;DHT22;5650;52.700;7.306;2023-01-23T09:48:47;3.60;99.90
11188;DHT22;5650;52.700;7.306;2023-01-23T09:51:24;3.60;99.90
11188;DHT22;5650;52.700;7.306;2023-01-23T09:53:59;3.60;99.90
11188;DHT22;5650;52.700;7.306;2023-01-23T09:56:30;3.60;99.90
11188;DHT22;5650;52.700;7.306;2023-01-23T09:59:02;3.60;99.90
11188;DHT22;5650;52.700;7.306;2023-01-23T10:01:36;3.60;99.90
11188;DHT22;5650;52.700;7.306;2023-01-23T10:04:04;3.60;99.90
11188;DHT22;5650;52.700;7.306;2023-01-23T10:07:03;3.60;99.90
11188;DHT22;5650;52.700;7.306;2023-01-23T10:09:44;3.60;99.90
11188;DHT22;5650;52.700;7.306;2023-01-23T10:12:31;3.60;99.90
11188;DHT22;5650;52.700;7.306;2023-01-23T10:15:18;3.70;99.90
11188;DHT22;5650;52.700;7.306;2023-01-23T10:17:52;3.80;99.90
11188;DHT22;5650;52.700;7.306;2023-01-23T10:20:50;3.90;99.90
11188;DHT22;5650;52.700;7.306;2023-01-23T10:23:47;4.00;99.90
11188;DHT22;5650;52.700;7.306;2023-01-23T10:26:20;4.00;99.90
11188;DHT22;5650;52.700;7.306;2023-01-23T10:28:50;4.00;99.90
11188;DHT22;5650;52.700;7.306;2023-01-23T10:31:29;4.00;99.90
11188;DHT22;5650;52.700;7.306;2023-01-23T10:34:10;4.00;99.90
11188;DHT22;5650;52.700;7.306;2023-01-23T10:36:44;4.10;99.90
11188;DHT22;5650;52.700;7.306;2023-01-23T10:39:18;4.10;99.90
11188;DHT22;5650;52.700;7.306;2023-01-23T10:41:51;4.10;99.90
11188;DHT22;5650;52.700;7.306;2023-01-23T10:44:19;4.10;99.90
11188;DHT22;5650;52.700;7.306;2023-01-23T10:46:50;4.10;99.90
11188;DHT22;5650;52.700;7.306;2023-01-23T10:49:36;4.10;99.90
11188;DHT22;5650;52.700;7.306;2023-01-23T10:52:28;4.10;99.90
11188;DHT22;5650;52.700;7.306;2023-01-23T10:54:56;4.20;99.90
11188;DHT22;5650;52.700;7.306;2023-01-23T10:57:25;4.20;99.90
11188;DHT22;5650;52.700;7.306;2023-01-23T10:59:56;4.20;99.90
11188;DHT22;5650;52.700;7.306;2023-01-23T11:02:30;4.30;99.90
11188;DHT22;5650;52.700;7.306;2023-01-23T11:04:58;4.30;99.90
11188;DHT22;5650;52.700;7.306;2023-01-23T11:07:27;4.30;99.90
11188;DHT22;5650;52.700;7.306;2023-01-23T11:09:57;4.30;99.90
11188;DHT22;5650;52.700;7.306;2023-01-23T11:12:26;4.40;99.90
11188;DHT22;5650;52.700;7.306;2023-01-23T11:15:12;4.40;99.90
11188;DHT22;5650;52.700;7.306;2023-01-23T11:17:44;4.40;99.90
11188;DHT22;5650;52.700;7.306;2023-01-23T11:20:22;4.40;99.90
11188;DHT22;5650;52.700;7.306;2023-01-23T11:23:03;4.50;99.90
11188;DHT22;5650;52.700;7.306;2023-01-23T11:25:32;4.50;99.90
11188;DHT22;5650;52.700;7.306;2023-01-23T11:28:03;4.50;99.90
11188;DHT22;5650;52.700;7.306;2023-01-23T11:30:45;4.50;99.90
11188;DHT22;5650;52.700;7.306;2023-01-23T11:33:33;4.50;99.90
11188;DHT22;5650;52.700;7.306;2023-01-23T11:36:30;4.50;99.90
11188;DHT22;5650;52.700;7.306;2023-01-23T11:39:04;4.60;99.90
11188;DHT22;5650;52.700;7.306;2023-01-23T11:41:38;4.60;99.90
11188;DHT22;5650;52.700;7.306;2023-01-23T11:44:14;4.60;99.90
11188;DHT22;5650;52.700;7.306;2023-01-23T11:47:05;4.70;99.90
11188;DHT22;5650;52.700;7.306;2023-01-23T11:50:07;4.70;99.90
11188;DHT22;5650;52.700;7.306;2023-01-23T11:52:48;4.70;99.90
11188;DHT22;5650;52.700;7.306;2023-01-23T11:58:45;4.70;99.90
11188;DHT22;5650;52.700;7.306;2023-01-23T12:01:20;4.70;99.90
11188;DHT22;5650;52.700;7.306;2023-01-23T12:04:33;4.80;99.90
11188;DHT22;5650;52.700;7.306;2023-01-23T12:07:19;4.80;99.90
11188;DHT22;5650;52.700;7.306;2023-01-23T12:09:58;4.80;99.90
11188;DHT22;5650;52.700;7.306;2023-01-23T12:15:31;4.80;99.90
11188;DHT22;5650;52.700;7.306;2023-01-23T12:18:14;4.80;99.90
11188;DHT22;5650;52.700;7.306;2023-01-23T12:20:53;4.80;99.90
11188;DHT22;5650;52.700;7.306;2023-01-23T12:26:23;4.80;99.90
11188;DHT22;5650;52.700;7.306;2023-01-23T12:29:21;4.90;99.90
11188;DHT22;5650;52.700;7.306;2023-01-23T12:32:03;4.90;99.90
11188;DHT22;5650;52.700;7.306;2023-01-23T12:34:54;4.80;99.90
11188;DHT22;5650;52.700;7.306;2023-01-23T12:37:36;4.90;99.90
11188;DHT22;5650;52.700;7.306;2023-01-23T12:40:12;4.90;99.90
11188;DHT22;5650;52.700;7.306;2023-01-23T12:42:50;4.90;99.90
11188;DHT22;5650;52.700;7.306;2023-01-23T12:45:28;4.90;99.90
11188;DHT22;5650;52.700;7.306;2023-01-23T12:48:05;4.90;99.90
11188;DHT22;5650;52.700;7.306;2023-01-23T12:50:39;4.90;99.90
11188;DHT22;5650;52.700;7.306;2023-01-23T12:53:10;4.90;99.90
11188;DHT22;5650;52.700;7.306;2023-01-23T12:55:45;5.00;99.90
11188;DHT22;5650;52.700;7.306;2023-01-23T12:58:16;5.00;99.90
11188;DHT22;5650;52.700;7.306;2023-01-23T13:04:03;4.90;99.90
11188;DHT22;5650;52.700;7.306;2023-01-23T13:07:12;4.90;99.90
11188;DHT22;5650;52.700;7.306;2023-01-23T13:09:50;4.90;99.90
11188;DHT22;5650;52.700;7.306;2023-01-23T13:12:25;4.90;99.90
11188;DHT22;5650;52.700;7.306;2023-01-23T13:17:40;4.90;99.90
11188;DHT22;5650;52.700;7.306;2023-01-23T13:20:26;4.90;99.90
11188;DHT22;5650;52.700;7.306;2023-01-23T13:23:28;4.90;99.90
11188;DHT22;5650;52.700;7.306;2023-01-23T13:29:03;4.90;99.90
11188;DHT22;5650;52.700;7.306;2023-01-23T13:31:42;4.80;99.90
11188;DHT22;5650;52.700;7.306;2023-01-23T13:34:33;4.80;99.90
11188;DHT22;5650;52.700;7.306;2023-01-23T13:40:16;4.80;99.90
11188;DHT22;5650;52.700;7.306;2023-01-23T13:42:43;4.80;99.90
11188;DHT22;5650;52.700;7.306;2023-01-23T13:45:28;4.80;99.90
11188;DHT22;5650;52.700;7.306;2023-01-23T13:48:30;4.80;99.90
11188;DHT22;5650;52.700;7.306;2023-01-23T13:51:22;4.80;99.90
11188;DHT22;5650;52.700;7.306;2023-01-23T13:53:51;4.80;99.90
11188;DHT22;5650;52.700;7.306;2023-01-23T13:56:38;4.80;99.90
11188;DHT22;5650;52.700;7.306;2023-01-23T13:59:12;4.80;99.90
11188;DHT22;5650;52.700;7.306;2023-01-23T14:01:50;4.80;99.90
11188;DHT22;5650;52.700;7.306;2023-01-23T14:04:39;4.80;99.90
11188;DHT22;5650;52.700;7.306;2023-01-23T14:07:26;4.80;99.90
11188;DHT22;5650;52.700;7.306;2023-01-23T14:10:17;4.70;99.90
11188;DHT22;5650;52.700;7.306;2023-01-23T14:12:44;4.70;99.90
11188;DHT22;5650;52.700;7.306;2023-01-23T14:15:23;4.70;99.90
11188;DHT22;5650;52.700;7.306;2023-01-23T14:18:19;4.70;99.90
11188;DHT22;5650;52.700;7.306;2023-01-23T14:20:48;4.70;99.90
11188;DHT22;5650;52.700;7.306;2023-01-23T14:23:27;4.70;99.90
11188;DHT22;5650;52.700;7.306;2023-01-23T14:25:55;4.70;99.90
11188;DHT22;5650;52.700;7.306;2023-01-23T14:28:23;4.70;99.90
11188;DHT22;5650;52.700;7.306;2023-01-23T14:30:55;4.80;99.90
11188;DHT22;5650;52.700;7.306;2023-01-23T14:33:24;4.80;99.90
11188;DHT22;5650;52.700;7.306;2023-01-23T14:35:53;4.80;99.90
11188;DHT22;5650;52.700;7.306;2023-01-23T14:38:31;4.80;99.90
11188;DHT22;5650;52.700;7.306;2023-01-23T14:41:03;4.70;99.90
11188;DHT22;5650;52.700;7.306;2023-01-23T14:43:32;4.80;99.90
11188;DHT22;5650;52.700;7.306;2023-01-23T14:46:03;4.70;99.90
11188;DHT22;5650;52.700;7.306;2023-01-23T14:48:35;4.70;99.90
11188;DHT22;5650;52.700;7.306;2023-01-23T14:51:08;4.70;99.90
11188;DHT22;5650;52.700;7.306;2023-01-23T14:53:40;4.70;99.90
11188;DHT22;5650;52.700;7.306;2023-01-23T14:56:09;4.70;99.90
11188;DHT22;5650;52.700;7.306;2023-01-23T14:58:37;4.70;99.90
11188;DHT22;5650;52.700;7.306;2023-01-23T15:01:05;4.70;99.90
11188;DHT22;5650;52.700;7.306;2023-01-23T15:03:39;4.70;99.90
11188;DHT22;5650;52.700;7.306;2023-01-23T15:06:11;4.70;99.90
11188;DHT22;5650;52.700;7.306;2023-01-23T15:08:39;4.60;99.90
11188;DHT22;5650;52.700;7.306;2023-01-23T15:11:07;4.60;99.90
11188;DHT22;5650;52.700;7.306;2023-01-23T15:13:59;4.60;99.90
11188;DHT22;5650;52.700;7.306;2023-01-23T15:16:34;4.60;99.90
11188;DHT22;5650;52.700;7.306;2023-01-23T15:19:19;4.60;99.90
11188;DHT22;5650;52.700;7.306;2023-01-23T15:22:15;4.60;99.90
11188;DHT22;5650;52.700;7.306;2023-01-23T15:24:44;4.50;99.90
11188;DHT22;5650;52.700;7.306;2023-01-23T15:27:31;4.50;99.90
11188;DHT22;5650;52.700;7.306;2023-01-23T15:30:36;4.50;99.90
11188;DHT22;5650;52.700;7.306;2023-01-23T15:33:24;4.50;99.90
11188;DHT22;5650;52.700;7.306;2023-01-23T15:36:01;4.40;99.90
11188;DHT22;5650;52.700;7.306;2023-01-23T15:38:29;4.40;99.90
11188;DHT22;5650;52.700;7.306;2023-01-23T15:40:57;4.40;99.90
11188;DHT22;5650;52.700;7.306;2023-01-23T15:43:24;4.40;99.90
11188;DHT22;5650;52.700;7.306;2023-01-23T15:45:51;4.40;99.90
11188;DHT22;5650;52.700;7.306;2023-01-23T15:48:18;4.40;99.90
11188;DHT22;5650;52.700;7.306;2023-01-23T15:50:45;4.40;99.90
11188;DHT22;5650;52.700;7.306;2023-01-23T15:53:14;4.40;99.90
11188;DHT22;5650;52.700;7.306;2023-01-23T15:55:41;4.40;99.90
11188;DHT22;5650;52.700;7.306;2023-01-23T15:58:11;4.30;99.90
11188;DHT22;5650;52.700;7.306;2023-01-23T16:00:39;4.30;99.90
11188;DHT22;5650;52.700;7.306;2023-01-23T16:03:06;4.30;99.90
11188;DHT22;5650;52.700;7.306;2023-01-23T16:05:35;4.30;99.90
11188;DHT22;5650;52.700;7.306;2023-01-23T16:08:04;4.30;99.90
11188;DHT22;5650;52.700;7.306;2023-01-23T16:10:35;4.30;99.90
11188;DHT22;5650;52.700;7.306;2023-01-23T16:13:04;4.30;99.90
11188;DHT22;5650;52.700;7.306;2023-01-23T16:15:33;4.30;99.90
11188;DHT22;5650;52.700;7.306;2023-01-23T16:18:04;4.30;99.90
11188;DHT22;5650;52.700;7.306;2023-01-23T16:20:33;4.30;99.90
11188;DHT22;5650;52.700;7.306;2023-01-23T16:23:03;4.30;99.90
11188;DHT22;5650;52.700;7.306;2023-01-23T16:25:34;4.30;99.90
11188;DHT22;5650;52.700;7.306;2023-01-23T16:28:03;4.20;99.90
11188;DHT22;5650;52.700;7.306;2023-01-23T16:30:31;4.20;99.90
11188;DHT22;5650;52.700;7.306;2023-01-23T16:32:58;4.20;99.90
11188;DHT22;5650;52.700;7.306;2023-01-23T16:35:25;4.20;99.90
11188;DHT22;5650;52.700;7.306;2023-01-23T16:37:53;4.20;99.90
11188;DHT22;5650;52.700;7.306;2023-01-23T16:40:22;4.20;99.90
11188;DHT22;5650;52.700;7.306;2023-01-23T16:42:52;4.20;99.90
11188;DHT22;5650;52.700;7.306;2023-01-23T16:45:22;4.20;99.90
11188;DHT22;5650;52.700;7.306;2023-01-23T16:47:50;4.20;99.90
11188;DHT22;5650;52.700;7.306;2023-01-23T16:50:20;4.20;99.90
11188;DHT22;5650;52.700;7.306;2023-01-23T16:52:53;4.20;99.90
11188;DHT22;5650;52.700;7.306;2023-01-23T16:55:23;4.20;99.90
11188;DHT22;5650;52.700;7.306;2023-01-23T16:57:54;4.20;99.90
11188;DHT22;5650;52.700;7.306;2023-01-23T17:00:22;4.20;99.90
11188;DHT22;5650;52.700;7.306;2023-01-23T17:02:51;4.20;99.90